Startpagina
METAR-TAF:

METAR-TAF

Vliegvelden :

Macas, Ecuador

breedte: 02-17-57-S, lengte: 078-07-15-W, hoogte: 1052 m

Actueel weer

Dit bericht is 44 minuten geleden gemaakt, om 22:00 UTC
Wind 3 kt uit het noordwesten, variërend tussen het westnoordwesten en het noorden
Temperatuur 22°C
Vochtigheid 83%
Druk 1016 hPa
Zicht 10 km of meer
Verspreide wolken op 3300 ft
buien in de omgeving

METAR: SEMC 192200Z 32003KT 290V010 9999 VCSH SCT033 22/19 Q1016 RMK A3001

Tijdstip: 17:44 (22:44 UTC)


TAF: ontbreekt

Waarnemingen en weersverwachtingen van meer dan 4000 vliegvelden (METAR en TAF).

De beschikbare stations zijn de gele en rode punten op de kaart.

Ga met uw muis naar het station om de naam te zien.

Klik dan om waarnemingen en weersverwachtingen te zien.

kaart wijzigen: klik op de groene knoppen met een zwart kruis om in te zoomen, op de groene knop met een streepje om uit te zoomen of op de groene pijlen voor aangrenzende kaarten.


METAR-TAF: